Time;durP1;ratioP1;P1;durP2;ratioP2;P2;SDS_P1;SDS_P2;PMS_P1;PMS_P2;Temp;Humidity;BMP_temperature;BMP_pressure;BME280_temperature;BME280_humidity;BME280_pressure;Samples;Min_cycle;Max_cycle;Signal;HPM_P1;HPM_P2
2021/04/28 00:00:35;;;;;;;25.85;11.30;;;;;;;10.67;100.00;100997.06;5022858;28;20032;-73
2021/04/28 00:03:21;;;;;;;24.77;10.55;;;;;;;10.73;100.00;100999.56;5038162;28;20135;-72
2021/04/28 00:06:07;;;;;;;16.58;9.82;;;;;;;10.44;100.00;101000.88;5036267;28;20056;-72
2021/04/28 00:08:53;;;;;;;13.32;9.75;;;;;;;10.87;100.00;101004.63;5022173;28;20296;-73
2021/04/28 00:11:39;;;;;;;12.77;9.60;;;;;;;10.70;100.00;101004.00;5036111;28;20025;-73
2021/04/28 00:14:25;;;;;;;17.50;9.13;;;;;;;10.83;100.00;101023.91;5022035;28;20021;-73
2021/04/28 00:17:13;;;;;;;20.17;10.13;;;;;;;10.74;100.00;101030.16;5021958;28;20091;-73
2021/04/28 00:19:59;;;;;;;19.40;10.63;;;;;;;10.75;100.00;101024.03;5022452;28;20048;-72
2021/04/28 00:22:44;;;;;;;13.98;9.20;;;;;;;10.69;100.00;101025.84;5036675;28;20029;-72
2021/04/28 00:25:31;;;;;;;10.95;8.80;;;;;;;10.59;100.00;101030.34;5036722;28;20029;-72
2021/04/28 00:28:16;;;;;;;16.92;9.10;;;;;;;10.43;100.00;101028.78;5021569;28;20029;-73
2021/04/28 00:31:02;;;;;;;17.58;8.65;;;;;;;10.67;100.00;101031.13;5022086;28;20099;-73
2021/04/28 00:33:49;;;;;;;12.68;9.88;;;;;;;10.46;100.00;101028.78;5035720;28;20022;-73
2021/04/28 00:36:35;;;;;;;15.45;8.90;;;;;;;10.54;100.00;101026.03;5036600;28;20060;-74
2021/04/28 00:39:20;;;;;;;12.70;9.02;;;;;;;10.40;100.00;101047.16;5037374;28;20057;-73
2021/04/28 00:42:07;;;;;;;12.73;9.43;;;;;;;10.32;100.00;101050.78;5036503;28;20022;-73
2021/04/28 00:44:54;;;;;;;11.55;9.15;;;;;;;10.39;100.00;101045.44;5021910;28;20029;-74
2021/04/28 00:47:39;;;;;;;10.68;8.73;;;;;;;10.33;100.00;101039.41;5040049;28;20461;-72
2021/04/28 00:50:37;;;;;;;10.30;8.20;;;;;;;10.47;100.00;101040.97;5043050;28;20033;-73
2021/04/28 00:53:25;;;;;;;11.10;8.50;;;;;;;10.33;100.00;101042.88;5056487;28;20108;-72
2021/04/28 00:56:11;;;;;;;9.95;8.32;;;;;;;10.25;100.00;101036.00;5055563;28;20036;-73
2021/04/28 00:58:57;;;;;;;9.90;8.52;;;;;;;10.18;100.00;101052.66;5055596;28;20064;-73
2021/04/28 01:01:43;;;;;;;13.80;8.23;;;;;;;10.26;100.00;101067.41;5056643;28;20039;-73
2021/04/28 01:04:29;;;;;;;8.77;7.53;;;;;;;10.35;100.00;101050.72;5056441;28;20048;-73
2021/04/28 01:07:19;;;;;;;9.50;7.90;;;;;;;10.25;100.00;101049.97;5056405;28;20362;-73
2021/04/28 01:10:16;;;;;;;11.35;7.80;;;;;;;10.26;100.00;101041.22;5041550;28;20029;-73
2021/04/28 01:13:04;;;;;;;20.63;9.57;;;;;;;10.07;100.00;101034.44;5054683;28;20025;-73
2021/04/28 01:15:52;;;;;;;14.70;8.52;;;;;;;10.23;100.00;101037.75;5040495;28;20167;-73
2021/04/28 01:18:38;;;;;;;19.90;8.30;;;;;;;10.45;100.00;101037.50;5054591;28;20028;-73
2021/04/28 01:21:25;;;;;;;11.05;7.72;;;;;;;10.33;100.00;101034.16;5042105;28;20129;-73
2021/04/28 01:24:12;;;;;;;12.43;7.63;;;;;;;10.15;100.00;101022.13;5055566;28;20438;-72
2021/04/28 01:27:03;;;;;;;11.77;7.18;;;;;;;10.28;100.00;101039.44;5055813;28;20087;-73
2021/04/28 01:29:50;;;;;;;21.35;8.15;;;;;;;10.19;100.00;101042.16;5041016;28;20032;-73
2021/04/28 01:32:40;;;;;;;10.63;6.97;;;;;;;10.36;100.00;101045.47;5056096;28;20032;-73
2021/04/28 01:35:26;;;;;;;12.20;7.65;;;;;;;10.22;100.00;101047.38;5040025;28;20095;-72
2021/04/28 01:38:13;;;;;;;22.75;8.27;;;;;;;10.14;100.00;101054.44;5056412;28;20029;-73
2021/04/28 01:40:59;;;;;;;10.93;7.22;;;;;;;10.16;100.00;101068.38;5055637;28;20025;-73
2021/04/28 01:43:46;;;;;;;13.23;7.18;;;;;;;10.32;100.00;101064.72;5054951;28;20055;-74
2021/04/28 01:46:32;;;;;;;7.88;6.60;;;;;;;10.18;100.00;101063.13;5055420;28;20071;-73
2021/04/28 01:49:19;;;;;;;9.55;7.15;;;;;;;10.14;100.00;101052.69;5055632;28;20102;-72
2021/04/28 01:52:05;;;;;;;7.70;6.15;;;;;;;10.04;100.00;101037.94;5041463;28;20541;-73
2021/04/28 01:54:51;;;;;;;8.10;6.65;;;;;;;9.77;100.00;101025.09;5055720;28;20025;-73
2021/04/28 01:57:38;;;;;;;8.82;6.70;;;;;;;9.85;100.00;101025.06;5056288;28;20087;-73
2021/04/28 02:00:24;;;;;;;8.02;7.00;;;;;;;9.78;100.00;101015.50;5041525;28;20021;-74
2021/04/28 02:03:10;;;;;;;12.55;6.80;;;;;;;9.92;100.00;101017.13;5056161;28;20361;-72
2021/04/28 02:05:58;;;;;;;12.18;7.57;;;;;;;9.68;100.00;101006.00;5055079;28;20029;-72
2021/04/28 02:08:44;;;;;;;10.65;7.22;;;;;;;9.51;100.00;101008.78;5056341;28;20033;-72
2021/04/28 02:11:30;;;;;;;11.20;7.40;;;;;;;9.28;100.00;101002.88;5055370;28;20036;-72
2021/04/28 02:14:21;;;;;;;12.20;8.43;;;;;;;9.53;100.00;100998.31;5055632;28;20024;-72
2021/04/28 02:17:08;;;;;;;11.57;8.60;;;;;;;9.41;100.00;100998.41;5055119;28;20025;-72
2021/04/28 02:19:54;;;;;;;16.25;8.50;;;;;;;8.99;100.00;100996.09;5054951;28;20445;-71
2021/04/28 02:22:41;;;;;;;15.60;9.10;;;;;;;8.92;100.00;101010.97;5055797;28;20025;-72
2021/04/28 02:25:27;;;;;;;14.07;9.30;;;;;;;8.94;100.00;101031.88;5055117;28;20112;-73
2021/04/28 02:28:13;;;;;;;11.48;8.25;;;;;;;8.82;100.00;101029.31;5040684;28;20307;-73
2021/04/28 02:31:02;;;;;;;13.77;9.25;;;;;;;8.97;100.00;101031.84;5055661;28;20040;-73
2021/04/28 02:33:48;;;;;;;10.65;8.60;;;;;;;9.09;100.00;101040.47;5055532;28;20013;-73
2021/04/28 02:36:41;;;;;;;15.00;9.02;;;;;;;9.36;100.00;101031.56;5054436;28;20095;-74
2021/04/28 02:39:35;;;;;;;14.77;9.60;;;;;;;9.25;100.00;101041.25;5056037;28;20036;-73
2021/04/28 02:42:22;;;;;;;10.90;8.15;;;;;;;9.29;100.00;101056.03;5054879;28;20380;-73
2021/04/28 02:45:09;;;;;;;15.55;8.55;;;;;;;9.36;100.00;101057.69;5055536;28;20036;-73
2021/04/28 02:47:55;;;;;;;13.45;9.40;;;;;;;9.27;100.00;101063.00;5040473;28;20049;-73
2021/04/28 02:50:41;;;;;;;17.15;9.43;;;;;;;8.94;100.00;101058.00;5054916;28;20025;-73
2021/04/28 02:53:29;;;;;;;15.80;9.43;;;;;;;8.97;100.00;101057.97;5054631;28;20533;-74
2021/04/28 02:56:15;;;;;;;14.77;10.07;;;;;;;9.18;100.00;101065.69;5041551;28;20091;-74
2021/04/28 02:59:02;;;;;;;12.15;10.23;;;;;;;9.23;100.00;101062.16;5053702;28;20025;-74
2021/04/28 03:01:49;;;;;;;12.82;9.60;;;;;;;9.08;100.00;101071.84;5040282;28;20032;-73
2021/04/28 03:04:40;;;;;;;13.35;10.40;;;;;;;9.01;100.00;101078.00;5055051;28;20462;-73
2021/04/28 03:07:26;;;;;;;12.80;10.90;;;;;;;8.97;100.00;101081.50;5054595;28;20036;-72
2021/04/28 03:10:14;;;;;;;15.75;10.95;;;;;;;8.85;100.00;101068.50;5040076;28;20048;-73
2021/04/28 03:13:00;;;;;;;14.25;10.95;;;;;;;8.74;100.00;101075.50;5039892;28;20497;-73
2021/04/28 03:15:50;;;;;;;14.30;10.77;;;;;;;9.03;100.00;101068.38;5054167;28;20115;-73
2021/04/28 03:18:37;;;;;;;21.63;11.70;;;;;;;8.82;100.00;101056.31;5053755;28;20382;-73
2021/04/28 03:21:25;;;;;;;14.85;10.80;;;;;;;8.93;100.00;101046.66;5055147;28;20033;-72
2021/04/28 03:24:11;;;;;;;16.73;10.52;;;;;;;8.96;100.00;101037.97;5058049;28;20032;-73
2021/04/28 03:27:08;;;;;;;13.30;9.95;;;;;;;9.16;100.00;101033.44;5042758;28;20031;-73
2021/04/28 03:29:54;;;;;;;12.57;10.55;;;;;;;9.12;100.00;101024.78;5058274;28;20033;-73
2021/04/28 03:32:40;;;;;;;11.40;10.20;;;;;;;9.21;100.00;101021.25;5058223;28;20374;-73
2021/04/28 03:35:26;;;;;;;13.40;11.93;;;;;;;9.24;100.00;101032.53;5057075;28;20029;-72
2021/04/28 03:38:12;;;;;;;15.27;11.30;;;;;;;9.33;100.00;101024.59;5058820;28;20025;-73
2021/04/28 03:40:58;;;;;;;12.85;10.60;;;;;;;9.28;100.00;101028.13;5058065;28;20103;-74
2021/04/28 03:43:44;;;;;;;13.70;10.07;;;;;;;9.07;100.00;101031.78;5043296;28;20021;-73
2021/04/28 03:46:29;;;;;;;11.20;10.00;;;;;;;9.19;100.00;101028.22;5057851;28;20053;-72
2021/04/28 03:49:15;;;;;;;10.30;9.30;;;;;;;9.23;100.00;101037.75;5056689;28;20040;-73
2021/04/28 03:52:01;;;;;;;12.43;9.75;;;;;;;9.53;100.00;101029.69;5058016;28;20025;-73
2021/04/28 03:54:47;;;;;;;10.90;9.77;;;;;;;9.17;100.00;101033.44;5057945;28;20013;-73
2021/04/28 03:57:33;;;;;;;11.57;8.80;;;;;;;9.32;100.00;101030.72;5043287;28;20033;-72
2021/04/28 04:00:19;;;;;;;11.57;9.90;;;;;;;9.14;100.00;101037.84;5058092;28;20370;-73
2021/04/28 04:03:05;;;;;;;12.13;9.70;;;;;;;9.22;100.00;101034.31;5057781;28;20102;-73
2021/04/28 04:05:50;;;;;;;12.48;9.82;;;;;;;9.25;100.00;101060.41;5057779;28;20068;-73
2021/04/28 04:08:36;;;;;;;13.45;10.30;;;;;;;9.08;100.00;101067.47;5057056;28;20094;-72
2021/04/28 04:11:22;;;;;;;15.50;10.25;;;;;;;9.28;100.00;101059.50;5042685;28;20043;-73
2021/04/28 04:14:08;;;;;;;12.07;10.43;;;;;;;9.05;100.00;101057.03;5057425;28;20361;-74
2021/04/28 04:16:54;;;;;;;15.73;10.82;;;;;;;9.15;100.00;101071.81;5042657;28;20060;-72
2021/04/28 04:19:39;;;;;;;16.02;11.02;;;;;;;9.37;100.00;101085.63;5056167;28;20548;-73
2021/04/28 04:22:25;;;;;;;18.35;11.25;;;;;;;9.29;100.00;101093.50;5056542;28;20051;-73
2021/04/28 04:25:11;;;;;;;18.02;11.20;;;;;;;9.51;100.00;101099.44;5055988;28;20366;-73
2021/04/28 04:27:57;;;;;;;12.48;9.88;;;;;;;9.47;100.00;101101.22;5042119;28;20025;-74
2021/04/28 04:30:43;;;;;;;14.10;10.02;;;;;;;9.45;100.00;101102.13;5056511;28;20029;-74
2021/04/28 04:33:29;;;;;;;19.63;10.18;;;;;;;9.59;100.00;101108.09;5042000;28;20017;-73
2021/04/28 04:36:14;;;;;;;18.15;10.15;;;;;;;9.14;100.00;101113.63;5057221;28;20029;-73
2021/04/28 04:39:00;;;;;;;18.23;10.55;;;;;;;9.05;100.00;101113.69;5056502;28;20083;-73
2021/04/28 04:41:46;;;;;;;16.48;10.57;;;;;;;8.75;100.00;101103.34;5055818;28;20035;-71
2021/04/28 04:44:32;;;;;;;11.07;9.73;;;;;;;8.89;100.00;101099.81;5057469;28;20040;-72
2021/04/28 04:47:18;;;;;;;11.57;9.60;;;;;;;9.08;100.00;101111.03;5055896;28;20049;-72
2021/04/28 04:50:06;;;;;;;13.25;8.77;;;;;;;9.04;100.00;101123.25;5057299;28;20087;-73
2021/04/28 04:52:51;;;;;;;13.63;9.15;;;;;;;9.28;100.00;101137.94;5055877;28;20056;-73
2021/04/28 04:55:39;;;;;;;9.82;8.48;;;;;;;9.06;100.00;101129.38;5056527;28;20052;-73
2021/04/28 04:58:24;;;;;;;9.68;8.45;;;;;;;8.96;100.00;101117.19;5057068;28;20025;-73
2021/04/28 05:01:10;;;;;;;12.30;8.43;;;;;;;8.77;100.00;101136.44;5056209;28;20029;-73
2021/04/28 05:03:56;;;;;;;9.73;8.68;;;;;;;8.63;100.00;101139.97;5056274;28;20024;-74
2021/04/28 05:06:42;;;;;;;10.25;7.95;;;;;;;9.10;100.00;101136.31;5041088;28;20104;-72
2021/04/28 05:09:28;;;;;;;9.20;7.97;;;;;;;9.24;100.00;101136.22;5056379;28;20025;-73
2021/04/28 05:12:14;;;;;;;11.13;8.82;;;;;;;9.21;100.00;101138.88;5056874;28;20333;-72
2021/04/28 05:15:00;;;;;;;12.20;7.82;;;;;;;9.02;100.00;101135.50;5056840;28;20021;-73
2021/04/28 05:17:46;;;;;;;14.23;8.23;;;;;;;8.60;100.00;101130.41;5057047;28;20420;-73
2021/04/28 05:20:31;;;;;;;13.75;8.30;;;;;;;9.00;100.00;101131.13;5041468;28;20024;-72
2021/04/28 05:23:17;;;;;;;12.98;7.80;;;;;;;8.83;100.00;101131.22;5055594;28;20381;-73
2021/04/28 05:26:03;;;;;;;12.45;8.68;;;;;;;8.59;100.00;101127.78;5055489;28;20119;-73
2021/04/28 05:28:48;;;;;;;15.05;8.25;;;;;;;9.05;100.00;101126.75;5056500;28;20035;-73
2021/04/28 05:31:34;;;;;;;16.02;8.63;;;;;;;9.29;100.00;101134.47;5055760;28;20029;-73
2021/04/28 05:34:20;;;;;;;18.90;9.40;;;;;;;9.15;100.00;101129.31;5056639;28;20047;-73
2021/04/28 05:37:06;;;;;;;22.35;9.90;;;;;;;9.14;100.00;101134.53;5055723;28;20017;-73
2021/04/28 05:39:52;;;;;;;13.85;8.05;;;;;;;9.00;100.00;101121.53;5041319;28;20021;-73
2021/04/28 05:42:38;;;;;;;14.55;7.05;;;;;;;9.01;100.00;101123.28;5056260;28;20036;-73
2021/04/28 05:45:24;;;;;;;14.32;7.95;;;;;;;8.91;100.00;101129.44;5055716;28;20025;-72
2021/04/28 05:48:11;;;;;;;23.20;10.13;;;;;;;9.11;100.00;101122.38;5041110;28;20087;-73
2021/04/28 05:50:57;;;;;;;20.77;9.48;;;;;;;9.49;100.00;101138.69;5054687;28;20040;-73
2021/04/28 05:53:43;;;;;;;22.33;8.23;;;;;;;9.29;100.00;101139.69;5056273;28;20038;-73
2021/04/28 05:56:29;;;;;;;24.13;9.88;;;;;;;9.06;100.00;101150.28;5056174;28;20024;-73
2021/04/28 05:59:14;;;;;;;28.88;10.73;;;;;;;9.27;100.00;101154.50;5056006;28;20068;-73
2021/04/28 06:02:00;;;;;;;12.88;8.05;;;;;;;9.09;100.00;101152.00;5054250;28;20031;-73
2021/04/28 06:04:46;;;;;;;12.25;8.05;;;;;;;9.20;100.00;101164.13;5054684;28;20082;-73
2021/04/28 06:07:32;;;;;;;16.33;9.27;;;;;;;8.88;100.00;101167.78;5040999;28;20029;-72
2021/04/28 06:10:18;;;;;;;13.55;8.00;;;;;;;9.24;100.00;101162.38;5055914;28;20493;-73
2021/04/28 06:13:04;;;;;;;9.30;7.30;;;;;;;9.23;100.00;101161.50;5055784;28;20032;-73
2021/04/28 06:15:50;;;;;;;9.02;6.85;;;;;;;9.15;100.00;101158.06;5054965;28;20036;-73
2021/04/28 06:18:36;;;;;;;12.45;7.03;;;;;;;9.19;100.00;101156.28;5054325;28;20025;-73
2021/04/28 06:21:22;;;;;;;10.50;7.45;;;;;;;9.10;100.00;101156.34;5055803;28;20064;-73
2021/04/28 06:24:08;;;;;;;17.05;8.50;;;;;;;9.30;100.00;101159.72;5054218;28;20021;-73
2021/04/28 06:26:54;;;;;;;14.25;7.53;;;;;;;9.18;100.00;101159.78;5041236;28;20029;-73
2021/04/28 06:29:40;;;;;;;14.10;7.60;;;;;;;9.05;100.00;101161.59;5040465;28;20115;-73
2021/04/28 06:32:26;;;;;;;17.55;8.93;;;;;;;9.08;100.00;101160.69;5055321;28;20048;-73
2021/04/28 06:35:12;;;;;;;12.20;7.88;;;;;;;9.15;100.00;101165.91;5054161;28;20043;-73
2021/04/28 06:37:58;;;;;;;11.60;7.88;;;;;;;9.27;100.00;101172.81;5054214;28;20047;-73
2021/04/28 06:40:43;;;;;;;12.15;7.60;;;;;;;9.36;100.00;101172.75;5057306;28;20120;-73
2021/04/28 06:43:29;;;;;;;10.75;7.20;;;;;;;9.30;100.00;101172.81;5053801;28;20576;-73
2021/04/28 06:46:15;;;;;;;8.57;6.50;;;;;;;9.33;100.00;101176.25;5033216;28;20352;-72
2021/04/28 06:49:01;;;;;;;9.30;8.13;;;;;;;9.24;100.00;101178.06;5032988;28;20112;-73
2021/04/28 06:51:47;;;;;;;9.50;7.43;;;;;;;9.04;100.00;101179.88;5034079;28;20036;-72
2021/04/28 06:54:33;;;;;;;11.65;6.97;;;;;;;9.51;100.00;101185.75;5019000;28;20084;-73
2021/04/28 06:57:19;;;;;;;9.68;7.35;;;;;;;10.01;100.00;101173.22;5038808;28;20105;-73
2021/04/28 07:00:06;;;;;;;14.45;6.82;;;;;;;10.02;100.00;101180.19;5038886;28;20450;-72
2021/04/28 07:02:53;;;;;;;8.10;6.72;;;;;;;9.66;100.00;101168.22;5038192;28;20021;-72
2021/04/28 07:05:39;;;;;;;8.77;7.05;;;;;;;9.62;100.00;101163.88;5038737;28;20021;-73
2021/04/28 07:08:25;;;;;;;10.88;7.65;;;;;;;9.78;100.00;101177.75;5024927;28;20358;-73
2021/04/28 07:11:11;;;;;;;14.98;7.60;;;;;;;9.65;100.00;101181.34;5038048;28;20052;-73
2021/04/28 07:13:56;;;;;;;14.25;8.15;;;;;;;9.75;100.00;101191.72;5037863;28;20033;-73
2021/04/28 07:16:43;;;;;;;17.42;9.77;;;;;;;10.22;100.00;101185.28;5038379;28;20040;-73
2021/04/28 07:19:29;;;;;;;21.20;10.05;;;;;;;10.30;100.00;101194.81;5023818;28;20144;-73
2021/04/28 07:22:14;;;;;;;14.15;7.70;;;;;;;10.56;100.00;101191.97;5022072;28;20108;-73
2021/04/28 07:25:00;;;;;;;21.27;10.88;;;;;;;10.47;100.00;101195.53;5022425;28;20025;-73
2021/04/28 07:27:47;;;;;;;13.40;8.63;;;;;;;10.50;100.00;101199.88;5037748;28;20031;-73
2021/04/28 07:30:33;;;;;;;14.05;7.88;;;;;;;10.46;100.00;101195.53;5022918;28;20029;-74
2021/04/28 07:33:18;;;;;;;14.05;9.65;;;;;;;10.42;100.00;101206.91;5037728;28;20104;-73
2021/04/28 07:36:05;;;;;;;18.27;9.02;;;;;;;10.08;100.00;101193.25;5038098;28;20032;-73
2021/04/28 07:38:51;;;;;;;13.88;7.65;;;;;;;10.83;100.00;101194.28;5036760;28;20466;-73
2021/04/28 07:41:37;;;;;;;16.40;7.90;;;;;;;11.29;100.00;101196.34;5036445;28;20025;-73
2021/04/28 07:44:25;;;;;;;10.70;8.07;;;;;;;10.64;100.00;101200.63;5037977;28;20025;-73
2021/04/28 07:47:10;;;;;;;9.38;7.35;;;;;;;10.58;100.00;101203.28;5037400;28;20057;-74
2021/04/28 07:49:56;;;;;;;11.30;7.45;;;;;;;10.70;100.00;101193.56;5057780;28;20037;-73
2021/04/28 07:52:42;;;;;;;10.57;7.30;;;;;;;11.38;100.00;101190.13;5057306;28;20037;-73
2021/04/28 07:55:29;;;;;;;10.02;7.50;;;;;;;10.85;100.00;101196.00;5041610;28;20116;-74
2021/04/28 07:58:16;;;;;;;8.95;7.80;;;;;;;10.86;100.00;101196.88;5057750;28;20461;-73
2021/04/28 08:01:02;;;;;;;10.57;8.05;;;;;;;10.57;100.00;101186.69;5055718;28;20039;-73
2021/04/28 08:03:48;;;;;;;9.07;7.40;;;;;;;11.17;100.00;101195.63;5057408;28;20418;-74
2021/04/28 08:06:36;;;;;;;11.40;7.30;;;;;;;11.28;100.00;101196.34;5058820;28;20048;-74
2021/04/28 08:09:22;;;;;;;8.77;7.70;;;;;;;10.96;100.00;101193.25;5042047;28;20032;-74
2021/04/28 08:12:08;;;;;;;10.45;7.18;;;;;;;11.00;100.00;101198.44;5056778;28;20028;-73
2021/04/28 08:14:54;;;;;;;10.73;7.47;;;;;;;11.17;100.00;101203.50;5057376;28;20136;-74
2021/04/28 08:17:40;;;;;;;9.77;7.20;;;;;;;11.40;100.00;101185.69;5056303;28;20051;-74
2021/04/28 08:20:26;;;;;;;10.80;7.00;;;;;;;11.47;100.00;101189.97;5056673;28;20029;-74
2021/04/28 08:23:12;;;;;;;10.77;7.18;;;;;;;11.60;100.00;101184.59;5041743;28;20021;-74
2021/04/28 08:26:04;;;;;;;9.32;7.20;;;;;;;11.59;100.00;101190.69;5043201;28;20028;-74
2021/04/28 08:28:50;;;;;;;10.25;6.93;;;;;;;11.91;100.00;101180.63;5056309;28;20032;-74
2021/04/28 08:31:36;;;;;;;9.90;7.40;;;;;;;12.32;100.00;101172.03;5042671;28;20033;-73
2021/04/28 08:34:22;;;;;;;12.18;7.47;;;;;;;11.97;100.00;101172.63;5057225;28;20075;-74
2021/04/28 08:37:07;;;;;;;12.80;7.57;;;;;;;12.89;100.00;101179.72;5055177;28;20025;-73
2021/04/28 08:39:53;;;;;;;11.38;7.90;;;;;;;12.82;100.00;101169.38;5056202;28;20020;-74
2021/04/28 08:42:40;;;;;;;11.85;6.57;;;;;;;12.06;100.00;101158.50;5042318;28;20024;-72
2021/04/28 08:45:26;;;;;;;10.50;6.80;;;;;;;12.24;100.00;101160.81;5056699;28;20347;-75
2021/04/28 08:48:11;;;;;;;10.13;7.20;;;;;;;12.41;100.00;101156.09;5057841;28;20037;-74
2021/04/28 08:50:59;;;;;;;16.65;8.02;;;;;;;12.98;100.00;101152.44;5057657;28;20462;-73
2021/04/28 08:53:45;;;;;;;10.02;7.15;;;;;;;13.55;100.00;101153.81;5056082;28;20048;-73
2021/04/28 08:56:34;;;;;;;11.05;7.72;;;;;;;12.90;100.00;101170.94;5056717;28;20025;-73
2021/04/28 08:59:21;;;;;;;11.57;8.57;;;;;;;12.47;100.00;101169.16;5057137;28;20025;-72
2021/04/28 09:02:28;;;;;;;11.82;10.15;;;;;;;12.67;100.00;101157.41;5043003;28;20099;-73
2021/04/28 09:05:14;;;;;;;12.20;9.00;;;;;;;12.49;100.00;101149.84;5055706;28;20056;-72
2021/04/28 09:08:07;;;;;;;11.00;8.43;;;;;;;12.34;100.00;101155.34;5057058;28;20036;-72
2021/04/28 09:10:53;;;;;;;13.20;7.95;;;;;;;12.53;100.00;101150.63;5042610;28;20480;-73
2021/04/28 09:13:39;;;;;;;15.45;8.50;;;;;;;12.53;100.00;101150.63;5041436;28;20021;-73
2021/04/28 09:16:24;;;;;;;15.07;8.07;;;;;;;12.76;100.00;101149.31;5056763;28;20111;-73
2021/04/28 09:19:38;;;;;;;11.98;7.20;;;;;;;12.89;100.00;101144.66;5040796;28;20445;-74
2021/04/28 09:22:24;;;;;;;9.82;7.25;;;;;;;13.05;100.00;101139.09;5042279;28;20083;-74
2021/04/28 09:25:10;;;;;;;9.95;7.63;;;;;;;12.75;100.00;101134.44;5054976;28;20017;-73
2021/04/28 09:27:56;;;;;;;15.38;7.55;;;;;;;12.52;100.00;101146.28;5041692;28;20029;-73
2021/04/28 09:30:42;;;;;;;19.83;8.18;;;;;;;13.40;100.00;101133.09;5056457;28;20102;-73
2021/04/28 09:33:28;;;;;;;16.65;7.82;;;;;;;14.17;100.00;101126.81;5056642;28;20025;-72
2021/04/28 09:36:15;;;;;;;11.38;7.78;;;;;;;13.00;100.00;101138.34;5056231;28;20028;-73
2021/04/28 09:39:07;;;;;;;11.52;7.63;;;;;;;13.58;100.00;101141.44;5055882;28;20147;-73
2021/04/28 09:41:55;;;;;;;19.83;6.95;;;;;;;13.66;100.00;101130.72;5054969;28;20461;-73
2021/04/28 09:44:48;;;;;;;10.57;6.93;;;;;;;14.09;100.00;101132.28;5055602;28;20021;-73
2021/04/28 09:47:34;;;;;;;7.95;6.82;;;;;;;14.38;100.00;101137.69;5023603;28;20381;-72
2021/04/28 09:50:27;;;;;;;10.48;7.18;;;;;;;14.37;100.00;101133.34;5019993;28;20100;-73
2021/04/28 09:53:27;;;;;;;19.23;7.07;;;;;;;14.60;100.00;101130.09;5021817;28;20119;-73
2021/04/28 09:56:17;;;;;;;10.57;7.10;;;;;;;14.96;100.00;101118.50;5034986;28;20335;-73
2021/04/28 09:59:03;;;;;;;12.00;7.63;;;;;;;13.92;100.00;101134.47;5034220;28;20513;-73
2021/04/28 10:01:57;;;;;;;12.55;7.30;;;;;;;14.14;100.00;101122.47;5020281;28;20025;-74
2021/04/28 10:04:43;;;;;;;11.15;7.82;;;;;;;13.31;100.00;101128.88;5035626;28;20040;-72
2021/04/28 10:07:28;;;;;;;18.88;8.35;;;;;;;13.01;100.00;101129.53;5033440;28;20470;-74
2021/04/28 10:10:16;;;;;;;10.50;7.25;;;;;;;13.13;100.00;101150.34;5034066;28;20468;-74
2021/04/28 10:13:03;;;;;;;11.27;8.00;;;;;;;13.25;100.00;101150.06;5034388;28;20056;-73
2021/04/28 10:15:49;;;;;;;14.43;8.18;;;;;;;13.56;100.00;101145.00;5034031;28;20021;-73
2021/04/28 10:18:36;;;;;;;11.00;7.40;;;;;;;14.18;100.00;101137.31;5034945;28;20029;-74
2021/04/28 10:21:21;;;;;;;9.65;7.50;;;;;;;15.10;100.00;101140.06;5020413;28;20086;-73
2021/04/28 10:24:09;;;;;;;10.45;7.32;;;;;;;14.96;100.00;101141.38;5034848;28;20152;-72
2021/04/28 10:26:56;;;;;;;12.27;7.38;;;;;;;15.02;100.00;101133.31;5033763;28;20021;-72
2021/04/28 10:29:42;;;;;;;8.55;6.72;;;;;;;14.63;100.00;101136.13;5035818;28;20036;-74
2021/04/28 10:32:28;;;;;;;11.93;7.38;;;;;;;14.18;100.00;101128.53;5007011;28;20040;-74
2021/04/28 10:35:17;;;;;;;13.60;7.28;;;;;;;13.93;100.00;101128.28;5033582;28;20044;-73
2021/04/28 10:38:03;;;;;;;9.55;7.60;;;;;;;13.50;100.00;101134.59;5035033;28;20105;-73
2021/04/28 10:40:53;;;;;;;12.90;7.57;;;;;;;13.35;100.00;101133.16;5020475;28;20095;-74
2021/04/28 10:43:39;;;;;;;15.25;8.15;;;;;;;13.06;100.00;101148.72;5034703;28;20022;-73
2021/04/28 10:46:24;;;;;;;14.18;8.23;;;;;;;13.64;100.00;101151.84;5043422;28;20076;-73
2021/04/28 10:49:19;;;;;;;11.07;7.75;;;;;;;13.05;100.00;101147.00;5054488;28;20411;-73
2021/04/28 10:52:31;;;;;;;14.70;8.40;;;;;;;13.61;100.00;101137.84;5054614;28;20040;-74
2021/04/28 10:55:41;;;;;;;12.38;8.00;;;;;;;13.91;100.00;101143.25;5055073;28;20021;-72
2021/04/28 10:58:27;;;;;;;15.43;8.10;;;;;;;14.20;100.00;101121.47;5055439;28;20450;-73
2021/04/28 11:01:21;;;;;;;17.42;8.23;;;;;;;13.91;100.00;101126.59;5054390;28;20025;-73
2021/04/28 11:04:12;;;;;;;17.85;9.05;;;;;;;13.49;100.00;101132.88;5055352;28;20095;-73
2021/04/28 11:06:58;;;;;;;15.05;8.45;;;;;;;13.31;100.00;101131.50;5040008;28;20433;-74
2021/04/28 11:09:44;;;;;;;14.68;8.50;;;;;;;13.42;100.00;101129.50;5055440;28;20060;-74
2021/04/28 11:13:08;;;;;;;17.73;7.93;;;;;;;13.99;100.00;101133.41;5039541;28;20043;-73
2021/04/28 11:15:58;;;;;;;12.43;8.18;;;;;;;13.63;100.00;101126.38;5055197;28;20475;-73
2021/04/28 11:18:46;;;;;;;14.75;8.45;;;;;;;13.65;100.00;101126.34;5054726;28;20032;-73
2021/04/28 11:21:32;;;;;;;11.27;7.63;;;;;;;13.53;100.00;101118.72;5054038;28;20083;-73
2021/04/28 11:24:17;;;;;;;11.55;8.05;;;;;;;13.66;100.00;101114.91;5054789;28;20029;-73
2021/04/28 11:27:07;;;;;;;11.05;8.60;;;;;;;13.15;100.00;101111.69;5055399;28;20103;-73
2021/04/28 11:29:56;;;;;;;14.35;8.43;;;;;;;14.14;100.00;101100.53;5054778;28;20435;-73
2021/04/28 11:33:08;;;;;;;11.02;7.22;;;;;;;14.47;100.00;101113.72;5054436;28;20168;-73
2021/04/28 11:35:54;;;;;;;10.52;7.95;;;;;;;13.55;100.00;101111.69;5054639;28;20466;-74
2021/04/28 11:38:44;;;;;;;11.85;7.82;;;;;;;13.84;100.00;101120.63;5054565;28;20029;-73
2021/04/28 11:41:29;;;;;;;14.68;8.18;;;;;;;13.91;100.00;101114.28;5054846;28;20039;-74
2021/04/28 11:44:17;;;;;;;14.30;7.88;;;;;;;14.13;100.00;101107.59;5058193;28;20099;-73
2021/04/28 11:47:09;;;;;;;12.77;7.60;;;;;;;14.08;100.00;101109.47;5057993;28;20425;-73
2021/04/28 11:49:56;;;;;;;12.75;8.07;;;;;;;14.25;100.00;101109.94;5057925;28;20462;-73
2021/04/28 11:52:42;;;;;;;14.18;8.63;;;;;;;13.51;100.00;101113.50;5058819;28;20187;-73
2021/04/28 11:55:39;;;;;;;14.95;8.48;;;;;;;14.03;100.00;101113.13;5057105;28;20021;-75
2021/04/28 11:58:29;;;;;;;13.20;8.35;;;;;;;14.41;100.00;101102.47;5058664;28;20450;-73
2021/04/28 12:01:16;;;;;;;12.80;8.45;;;;;;;14.30;100.00;101097.50;5043305;28;20037;-73
2021/04/28 12:04:08;;;;;;;14.07;8.57;;;;;;;14.07;100.00;101091.06;5043708;28;20029;-74
2021/04/28 12:06:55;;;;;;;15.60;9.13;;;;;;;13.20;100.00;101095.81;5043274;28;20123;-74
2021/04/28 12:09:41;;;;;;;14.95;8.98;;;;;;;13.52;100.00;101093.31;5058419;28;20090;-74
2021/04/28 12:12:32;;;;;;;14.32;8.52;;;;;;;13.55;100.00;101082.72;5057878;28;20060;-74
2021/04/28 12:15:18;;;;;;;14.88;7.90;;;;;;;14.18;100.00;101071.44;5058257;28;20477;-73
2021/04/28 12:18:04;;;;;;;12.73;8.52;;;;;;;13.84;100.00;101067.06;5042774;28;20035;-73
2021/04/28 12:20:56;;;;;;;12.77;8.48;;;;;;;13.83;100.00;101070.63;5042785;28;20035;-73
2021/04/28 12:23:42;;;;;;;11.77;8.63;;;;;;;13.10;100.00;101079.38;5057022;28;20036;-73
2021/04/28 12:26:28;;;;;;;15.90;8.35;;;;;;;12.97;100.00;101072.66;5058089;28;20025;-74
2021/04/28 12:29:22;;;;;;;18.38;8.40;;;;;;;13.80;100.00;101054.88;5043499;28;20029;-74
2021/04/28 12:32:08;;;;;;;11.10;8.32;;;;;;;13.90;100.00;101053.72;5043312;28;20039;-75
2021/04/28 12:35:24;;;;;;;12.35;8.40;;;;;;;13.31;100.00;101054.34;5057970;28;20449;-74
2021/04/28 12:38:13;;;;;;;13.82;8.15;;;;;;;13.65;100.00;101060.53;5057317;28;20029;-73
2021/04/28 12:41:01;;;;;;;12.30;7.90;;;;;;;14.38;100.00;101057.75;5058253;28;20040;-73
2021/04/28 12:43:48;;;;;;;28.13;9.35;;;;;;;13.86;100.00;101039.78;5057759;28;20514;-73